Terminal Aerodrome Forecast
Issued by NWS

Home | Current Version | Previous Version | Text Only | Print | Product List | Glossary On
Versions: 1 2 3 4 5 6 7 8 9 10 11 12 13 14
000
FTUS44 KEPZ 181700
TAFDMN
TAF
KDMN 181740Z 1818/1918 11012G20KT P6SM OVC250
     FM182100 22014G22KT P6SM VCSH SCT080 BKN120 OVC200
     FM190000 20011KT P6SM VCTS SCT070CB BKN100 OVC200
      TEMPO 1901/1905 VRB27G40KT 6SM -TSRA BKN060CB OVC100
     FM190600 33006KT P6SM SCT060 BKN120=

USA.gov is the U.S. government's official web portal to all federal, state and local government web resources and services.